createdAt,value
2022-11-05T00:01:46.982Z,15.20
2022-11-05T00:04:37.216Z,15.10
2022-11-05T00:07:57.328Z,15.10
2022-11-05T00:10:31.467Z,15.10
2022-11-05T00:13:17.793Z,15.10
2022-11-05T00:16:08.009Z,15.00
2022-11-05T00:18:38.385Z,15.00
2022-11-05T00:21:28.364Z,14.90
2022-11-05T00:24:08.438Z,14.90
2022-11-05T00:26:38.964Z,14.90
2022-11-05T00:29:08.824Z,14.90
2022-11-05T00:31:39.587Z,14.80
2022-11-05T00:34:10.008Z,14.80
2022-11-05T00:36:40.549Z,14.80
2022-11-05T00:39:10.289Z,14.80
2022-11-05T00:41:40.717Z,14.80
2022-11-05T00:44:29.707Z,14.80
2022-11-05T00:47:19.462Z,14.80
2022-11-05T00:49:50.021Z,14.80
2022-11-05T00:52:30.180Z,14.80
2022-11-05T00:55:00.697Z,14.80
2022-11-05T00:57:30.437Z,14.80
2022-11-05T01:00:03.749Z,14.90
2022-11-05T01:02:34.175Z,14.90
2022-11-05T01:05:04.752Z,14.90
2022-11-05T01:07:35.118Z,15.00
2022-11-05T01:10:05.590Z,15.00
2022-11-05T01:12:36.060Z,15.00
2022-11-05T01:15:06.936Z,15.00
2022-11-05T01:17:37.434Z,15.10
2022-11-05T01:20:08.232Z,15.10
2022-11-05T01:22:38.625Z,15.20
2022-11-05T01:25:09.743Z,15.30
2022-11-05T01:27:41.166Z,15.40
2022-11-05T01:30:12.695Z,15.50
2022-11-05T01:32:43.211Z,15.60
2022-11-05T01:35:19.455Z,15.70
2022-11-05T01:37:50.525Z,15.80
2022-11-05T01:40:24.495Z,15.90
2022-11-05T01:42:55.871Z,16.00
2022-11-05T01:45:29.826Z,16.10
2022-11-05T01:48:29.844Z,16.20
2022-11-05T01:51:20.542Z,16.30
2022-11-05T01:53:57.169Z,16.50
2022-11-05T01:56:33.645Z,16.60
2022-11-05T01:59:27.864Z,16.70
2022-11-05T02:01:58.558Z,16.90
2022-11-05T02:04:52.809Z,17.00
2022-11-05T02:07:25.450Z,17.10
2022-11-05T02:10:08.040Z,17.30
2022-11-05T02:12:40.753Z,17.40
2022-11-05T02:15:14.603Z,17.40
2022-11-05T02:18:16.913Z,17.40
2022-11-05T02:21:05.823Z,17.40
2022-11-05T02:24:05.795Z,17.30
2022-11-05T02:27:04.305Z,17.30
2022-11-05T02:30:12.931Z,17.30
2022-11-05T02:33:05.800Z,17.30
2022-11-05T02:36:06.862Z,17.40
2022-11-05T02:39:06.736Z,17.20
2022-11-05T02:42:01.931Z,17.30
2022-11-05T02:44:53.788Z,17.40
2022-11-05T02:47:47.469Z,17.50
2022-11-05T02:50:34.458Z,17.70
2022-11-05T02:53:13.060Z,17.80
2022-11-05T02:56:01.506Z,17.80
2022-11-05T02:58:32.347Z,17.90
2022-11-05T03:01:03.773Z,17.90
2022-11-05T03:03:53.036Z,18.00
2022-11-05T03:06:48.496Z,18.10
2022-11-05T03:09:48.526Z,18.10
2022-11-05T03:12:38.807Z,18.20
2022-11-05T03:15:27.175Z,18.20
2022-11-05T03:18:34.255Z,18.30
2022-11-05T03:21:11.339Z,18.50
2022-11-05T03:24:04.993Z,18.60
2022-11-05T03:26:54.381Z,18.60
2022-11-05T03:29:45.487Z,18.90
2022-11-05T03:32:18.183Z,19.10
2022-11-05T03:34:53.956Z,19.20
2022-11-05T03:37:26.394Z,19.30
2022-11-05T03:40:01.663Z,19.30
2022-11-05T03:42:34.964Z,19.30
2022-11-05T03:45:12.736Z,19.40
2022-11-05T03:47:45.254Z,19.40
2022-11-05T03:50:41.520Z,19.40
2022-11-05T03:53:24.640Z,19.50
2022-11-05T03:56:03.683Z,19.70
2022-11-05T03:58:34.333Z,19.80
2022-11-05T04:01:05.232Z,19.90
2022-11-05T04:03:37.994Z,19.90
2022-11-05T04:06:21.359Z,20.00
2022-11-05T04:09:01.440Z,20.20
2022-11-05T04:11:41.646Z,20.30
2022-11-05T04:14:11.375Z,20.30
2022-11-05T04:16:51.967Z,20.40
2022-11-05T04:19:41.228Z,20.40
2022-11-05T04:22:22.276Z,20.50
2022-11-05T04:24:52.546Z,20.60
2022-11-05T04:27:22.418Z,20.60
2022-11-05T04:30:02.735Z,20.70
2022-11-05T04:32:32.602Z,20.90
2022-11-05T04:35:03.313Z,21.00
2022-11-05T04:37:33.355Z,21.00
2022-11-05T04:40:03.194Z,21.10
2022-11-05T04:42:33.089Z,21.20
2022-11-05T04:45:02.991Z,21.20
2022-11-05T04:47:32.819Z,21.20
2022-11-05T04:50:03.693Z,21.30
2022-11-05T04:52:35.002Z,21.30
2022-11-05T04:55:05.103Z,21.40
2022-11-05T04:57:34.337Z,21.40
2022-11-05T05:00:05.282Z,21.40
2022-11-05T05:02:35.814Z,21.60
2022-11-05T05:05:06.669Z,21.60
2022-11-05T05:07:37.470Z,21.70
2022-11-05T05:10:08.991Z,21.90
2022-11-05T05:12:39.002Z,22.00
2022-11-05T05:15:09.576Z,22.10
2022-11-05T05:17:39.458Z,22.20
2022-11-05T05:20:25.755Z,22.20
2022-11-05T05:22:57.019Z,22.30
2022-11-05T05:25:27.093Z,22.40
2022-11-05T05:27:58.484Z,22.50
2022-11-05T05:30:28.687Z,22.50
2022-11-05T05:32:58.635Z,22.60
2022-11-05T05:35:28.901Z,22.60
2022-11-05T05:37:58.987Z,22.60
2022-11-05T05:40:28.724Z,22.60
2022-11-05T05:42:58.702Z,22.70
2022-11-05T05:45:28.742Z,22.70
2022-11-05T05:47:58.957Z,22.80
2022-11-05T05:50:28.859Z,22.90
2022-11-05T05:52:59.107Z,22.90
2022-11-05T05:55:29.224Z,23.10
2022-11-05T05:57:59.800Z,23.10
2022-11-05T06:00:29.771Z,23.10
2022-11-05T06:02:59.689Z,23.30
2022-11-05T06:05:28.933Z,23.40
2022-11-05T06:08:00.127Z,23.50
2022-11-05T06:10:30.050Z,23.50
2022-11-05T06:13:02.484Z,23.50
2022-11-05T06:15:35.823Z,23.40
2022-11-05T06:18:06.240Z,23.50
2022-11-05T06:20:35.459Z,23.50
2022-11-05T06:23:05.334Z,23.60
2022-11-05T06:25:38.523Z,23.70
2022-11-05T06:28:11.915Z,23.70
2022-11-05T06:30:41.825Z,23.90
2022-11-05T06:33:11.951Z,23.80
2022-11-05T06:35:42.058Z,23.80
2022-11-05T06:38:11.910Z,23.90
2022-11-05T06:40:41.747Z,24.00
2022-11-05T06:43:12.131Z,24.00
2022-11-05T06:45:42.707Z,24.00
2022-11-05T06:48:12.485Z,24.10
2022-11-05T06:50:45.513Z,24.10
2022-11-05T06:53:15.941Z,24.00
2022-11-05T06:55:46.826Z,24.10
2022-11-05T06:58:17.281Z,24.10
2022-11-05T07:00:47.871Z,24.20
2022-11-05T07:03:17.919Z,24.20
2022-11-05T07:05:50.124Z,24.10
2022-11-05T07:08:20.172Z,24.20
2022-11-05T07:10:50.471Z,24.10
2022-11-05T07:13:20.401Z,24.10
2022-11-05T07:15:49.676Z,24.10
2022-11-05T07:18:19.643Z,24.10
2022-11-05T07:20:48.947Z,24.10
2022-11-05T07:23:19.191Z,24.20
2022-11-05T07:25:49.240Z,24.00
2022-11-05T07:28:18.407Z,24.10
2022-11-05T07:30:49.820Z,24.10
2022-11-05T07:33:19.828Z,24.10
2022-11-05T07:35:49.082Z,24.10
2022-11-05T07:38:19.017Z,24.10
2022-11-05T07:40:48.890Z,24.10
2022-11-05T07:43:18.761Z,24.20
2022-11-05T07:45:49.396Z,24.20
2022-11-05T07:48:19.306Z,24.20
2022-11-05T07:50:48.540Z,24.20
2022-11-05T07:53:18.552Z,24.10
2022-11-05T07:55:48.196Z,24.20
2022-11-05T07:58:18.541Z,24.20
2022-11-05T08:00:49.707Z,24.20
2022-11-05T08:03:21.436Z,24.10
2022-11-05T08:05:52.148Z,24.10
2022-11-05T08:08:23.003Z,24.00
2022-11-05T08:10:53.475Z,24.00
2022-11-05T08:13:23.745Z,24.00
2022-11-05T08:15:54.605Z,24.10
2022-11-05T08:18:24.931Z,24.00
2022-11-05T08:20:56.126Z,24.00
2022-11-05T08:23:26.476Z,24.10
2022-11-05T08:25:57.648Z,24.20
2022-11-05T08:28:29.237Z,24.00
2022-11-05T08:31:02.247Z,24.00
2022-11-05T08:33:33.021Z,24.00
2022-11-05T08:36:07.231Z,23.90
2022-11-05T08:38:37.066Z,23.90
2022-11-05T08:41:07.700Z,23.90
2022-11-05T08:43:38.192Z,24.00
2022-11-05T08:46:08.039Z,24.00
2022-11-05T08:48:37.897Z,24.00
2022-11-05T08:51:07.866Z,24.00
2022-11-05T08:53:37.134Z,24.00
2022-11-05T08:56:07.156Z,24.00
2022-11-05T08:58:36.353Z,24.00
2022-11-05T09:01:07.389Z,24.00
2022-11-05T09:03:37.319Z,24.00
2022-11-05T09:06:07.475Z,24.00
2022-11-05T09:08:37.436Z,24.00
2022-11-05T09:11:06.912Z,23.90
2022-11-05T09:13:37.207Z,24.00
2022-11-05T09:16:07.880Z,23.90
2022-11-05T09:18:37.730Z,23.90
2022-11-05T09:21:07.656Z,23.70
2022-11-05T09:23:36.925Z,23.60
2022-11-05T09:26:06.834Z,23.70
2022-11-05T09:28:36.642Z,23.70
2022-11-05T09:31:12.125Z,23.70
2022-11-05T09:33:43.098Z,23.70
2022-11-05T09:36:13.071Z,23.60
2022-11-05T09:38:42.290Z,23.50
2022-11-05T09:41:30.550Z,23.60
2022-11-05T09:44:08.173Z,23.60
2022-11-05T09:46:58.842Z,23.50
2022-11-05T09:49:37.003Z,23.50
2022-11-05T09:52:07.470Z,23.50
2022-11-05T09:54:37.364Z,23.50
2022-11-05T09:57:14.024Z,23.40
2022-11-05T09:59:49.343Z,23.50
2022-11-05T10:02:37.001Z,23.40
2022-11-05T10:05:13.482Z,23.40
2022-11-05T10:07:58.774Z,23.40
2022-11-05T10:10:41.269Z,23.30
2022-11-05T10:13:25.948Z,23.20
2022-11-05T10:16:19.286Z,23.20
2022-11-05T10:18:55.878Z,23.10
2022-11-05T10:21:51.368Z,23.10
2022-11-05T10:24:19.567Z,23.10
2022-11-05T10:26:52.651Z,23.10
2022-11-05T10:29:36.137Z,23.00
2022-11-05T10:32:08.954Z,23.00
2022-11-05T10:34:42.150Z,22.90
2022-11-05T10:37:13.025Z,22.90
2022-11-05T10:39:42.986Z,22.80
2022-11-05T10:42:35.089Z,22.70
2022-11-05T10:45:26.254Z,22.70
2022-11-05T10:48:26.590Z,22.60
2022-11-05T10:50:57.159Z,22.50
2022-11-05T10:53:34.704Z,22.40
2022-11-05T10:56:05.589Z,22.40
2022-11-05T10:58:37.317Z,22.30
2022-11-05T11:01:12.895Z,22.30
2022-11-05T11:03:50.461Z,22.20
2022-11-05T11:06:39.740Z,22.10
2022-11-05T11:09:21.495Z,22.00
2022-11-05T11:12:07.483Z,21.90
2022-11-05T11:14:37.377Z,21.80
2022-11-05T11:17:28.510Z,21.70
2022-11-05T11:20:25.125Z,21.70
2022-11-05T11:23:17.280Z,21.70
2022-11-05T11:26:02.419Z,21.70
2022-11-05T11:28:50.395Z,21.60
2022-11-05T11:31:27.351Z,21.50
2022-11-05T11:34:10.237Z,21.50
2022-11-05T11:36:49.087Z,21.50
2022-11-05T11:39:26.202Z,20.40
2022-11-05T11:42:01.758Z,21.40
2022-11-05T11:44:38.523Z,21.30
2022-11-05T11:47:15.735Z,21.30
2022-11-05T11:49:54.046Z,21.30
2022-11-05T11:52:34.449Z,21.20
2022-11-05T11:55:24.479Z,21.10
2022-11-05T11:58:06.702Z,21.10
2022-11-05T12:00:44.585Z,21.00
2022-11-05T12:03:51.598Z,21.00
2022-11-05T12:06:51.056Z,21.00
2022-11-05T12:09:34.102Z,21.00
2022-11-05T12:12:16.642Z,20.90
2022-11-05T12:15:17.604Z,20.80
2022-11-05T12:18:05.120Z,20.80
2022-11-05T12:20:56.941Z,20.70
2022-11-05T12:23:57.577Z,20.70
2022-11-05T12:26:48.014Z,20.60
2022-11-05T12:29:45.857Z,20.60
2022-11-05T12:32:33.089Z,20.50
2022-11-05T12:35:37.038Z,20.50
2022-11-05T12:38:37.976Z,20.40
2022-11-05T12:41:41.257Z,20.40
2022-11-05T12:44:43.088Z,20.40
2022-11-05T12:47:34.292Z,20.30
2022-11-05T12:50:33.502Z,20.30
2022-11-05T12:53:33.662Z,20.30
2022-11-05T12:56:12.336Z,20.30
2022-11-05T12:58:48.198Z,20.30
2022-11-05T13:01:23.469Z,20.30
2022-11-05T13:04:04.519Z,20.20
2022-11-05T13:06:42.973Z,20.20
2022-11-05T13:09:37.008Z,20.10
2022-11-05T13:12:15.816Z,20.20
2022-11-05T13:14:59.767Z,20.10
2022-11-05T13:17:38.831Z,20.10
2022-11-05T13:20:23.151Z,20.00
2022-11-05T13:23:08.922Z,20.00
2022-11-05T13:25:48.373Z,20.00
2022-11-05T13:28:48.741Z,20.00
2022-11-05T13:31:22.634Z,19.90
2022-11-05T13:33:54.680Z,19.80
2022-11-05T13:36:55.534Z,19.90
2022-11-05T13:39:35.026Z,19.80
2022-11-05T13:42:36.514Z,19.70
2022-11-05T13:45:40.530Z,19.70
2022-11-05T13:48:47.245Z,19.50
2022-11-05T13:51:43.353Z,19.50
2022-11-05T13:54:43.505Z,19.50
2022-11-05T13:57:47.793Z,19.50
2022-11-05T14:00:25.822Z,19.50
2022-11-05T14:03:03.041Z,19.50
2022-11-05T14:05:44.045Z,19.50
2022-11-05T14:08:27.859Z,19.50
2022-11-05T14:11:10.571Z,19.40
2022-11-05T14:13:45.207Z,19.30
2022-11-05T14:16:23.935Z,19.30
2022-11-05T14:19:33.215Z,19.20
2022-11-05T14:22:23.801Z,19.20
2022-11-05T14:24:54.704Z,19.10
2022-11-05T14:27:46.223Z,19.20
2022-11-05T14:30:49.784Z,19.10
2022-11-05T14:33:34.965Z,19.20
2022-11-05T14:36:31.542Z,19.10
2022-11-05T14:39:23.489Z,19.20
2022-11-05T14:42:01.424Z,19.00
2022-11-05T14:44:34.171Z,19.00
2022-11-05T14:47:09.914Z,18.90
2022-11-05T14:49:56.525Z,18.90
2022-11-05T14:52:28.000Z,18.90
2022-11-05T14:55:00.777Z,18.90
2022-11-05T14:58:01.831Z,18.90
2022-11-05T15:00:46.377Z,18.80
2022-11-05T15:03:42.703Z,18.80
2022-11-05T15:06:34.322Z,18.70
2022-11-05T15:09:18.116Z,18.70
2022-11-05T15:12:04.637Z,18.70
2022-11-05T15:14:51.451Z,18.70
2022-11-05T15:17:31.792Z,18.70
2022-11-05T15:20:11.273Z,18.70
2022-11-05T15:22:46.353Z,18.60
2022-11-05T15:25:47.862Z,18.60
2022-11-05T15:28:46.019Z,18.60
2022-11-05T15:31:35.976Z,18.50
2022-11-05T15:34:26.340Z,18.50
2022-11-05T15:36:58.818Z,18.50
2022-11-05T15:39:42.689Z,18.40
2022-11-05T15:42:26.694Z,18.40
2022-11-05T15:45:00.221Z,18.40
2022-11-05T15:47:36.288Z,18.40
2022-11-05T15:50:16.525Z,18.30
2022-11-05T15:53:04.854Z,18.30
2022-11-05T15:55:55.670Z,18.20
2022-11-05T15:58:26.162Z,18.20
2022-11-05T16:00:56.967Z,18.20
2022-11-05T16:03:36.322Z,18.20
2022-11-05T16:06:11.314Z,18.20
2022-11-05T16:08:41.873Z,18.20
2022-11-05T16:11:22.912Z,18.20
2022-11-05T16:13:53.903Z,18.20
2022-11-05T16:16:37.057Z,18.20
2022-11-05T16:19:40.264Z,18.10
2022-11-05T16:22:11.402Z,18.10
2022-11-05T16:24:41.927Z,18.10
2022-11-05T16:27:20.035Z,18.10
2022-11-05T16:29:57.541Z,18.10
2022-11-05T16:32:33.039Z,18.10
2022-11-05T16:35:06.642Z,18.00
2022-11-05T16:37:51.629Z,18.00
2022-11-05T16:40:26.301Z,17.60
2022-11-05T16:42:57.788Z,18.00
2022-11-05T16:45:28.643Z,18.00
2022-11-05T16:47:59.109Z,18.00
2022-11-05T16:50:33.673Z,18.00
2022-11-05T16:53:04.284Z,18.00
2022-11-05T16:55:36.259Z,17.90
2022-11-05T16:58:06.849Z,17.90
2022-11-05T17:00:37.314Z,17.90
2022-11-05T17:03:07.907Z,17.80
2022-11-05T17:05:39.471Z,17.80
2022-11-05T17:08:11.432Z,17.80
2022-11-05T17:10:43.379Z,17.70
2022-11-05T17:13:19.115Z,17.70
2022-11-05T17:15:52.452Z,17.60
2022-11-05T17:18:23.663Z,17.60
2022-11-05T17:20:56.721Z,17.60
2022-11-05T17:23:29.567Z,17.60
2022-11-05T17:26:05.791Z,17.60
2022-11-05T17:28:37.455Z,17.60
2022-11-05T17:31:10.733Z,17.70
2022-11-05T17:33:41.765Z,17.60
2022-11-05T17:36:16.298Z,17.60
2022-11-05T17:38:47.066Z,17.60
2022-11-05T17:41:24.245Z,17.50
2022-11-05T17:44:00.820Z,17.50
2022-11-05T17:46:31.670Z,17.50
2022-11-05T17:49:02.305Z,17.40
2022-11-05T17:51:32.775Z,17.40
2022-11-05T17:54:03.318Z,17.40
2022-11-05T17:56:36.256Z,17.30
2022-11-05T17:59:08.623Z,17.30
2022-11-05T18:01:45.120Z,17.30
2022-11-05T18:04:15.903Z,17.20
2022-11-05T18:06:46.470Z,17.20
2022-11-05T18:09:17.572Z,17.20
2022-11-05T18:11:48.476Z,17.20
2022-11-05T18:14:23.679Z,17.10
2022-11-05T18:16:57.396Z,17.10
2022-11-05T18:19:28.299Z,17.10
2022-11-05T18:21:58.968Z,17.10
2022-11-05T18:24:29.331Z,17.00
2022-11-05T18:26:59.905Z,17.10
2022-11-05T18:29:30.990Z,17.10
2022-11-05T18:32:01.428Z,17.00
2022-11-05T18:34:31.272Z,17.00
2022-11-05T18:37:01.828Z,17.00
2022-11-05T18:39:32.374Z,17.00
2022-11-05T18:42:02.231Z,16.90
2022-11-05T18:44:37.807Z,16.90
2022-11-05T18:47:09.602Z,16.90
2022-11-05T18:49:39.520Z,16.90
2022-11-05T18:52:10.007Z,16.90
2022-11-05T18:54:39.865Z,16.80
2022-11-05T18:57:10.615Z,16.80
2022-11-05T18:59:44.122Z,16.80
2022-11-05T19:02:15.158Z,16.80
2022-11-05T19:05:07.028Z,16.80
2022-11-05T19:07:41.780Z,16.90
2022-11-05T19:10:12.941Z,16.80
2022-11-05T19:12:43.570Z,16.80
2022-11-05T19:15:14.510Z,16.80
2022-11-05T19:17:45.077Z,16.70
2022-11-05T19:20:16.181Z,16.70
2022-11-05T19:22:46.596Z,16.70
2022-11-05T19:25:17.080Z,16.70
2022-11-05T19:27:46.983Z,16.70
2022-11-05T19:30:17.670Z,16.70
2022-11-05T19:32:48.216Z,16.70
2022-11-05T19:35:18.181Z,16.70
2022-11-05T19:37:48.572Z,16.60
2022-11-05T19:40:19.249Z,16.60
2022-11-05T19:42:50.488Z,16.60
2022-11-05T19:45:43.585Z,16.50
2022-11-05T19:48:16.176Z,16.60
2022-11-05T19:50:49.720Z,16.50
2022-11-05T19:53:20.685Z,16.50
2022-11-05T19:55:51.240Z,16.50
2022-11-05T19:58:21.032Z,16.50
2022-11-05T20:00:51.457Z,16.50
2022-11-05T20:03:21.390Z,16.50
2022-11-05T20:05:52.233Z,16.40
2022-11-05T20:08:22.822Z,16.40
2022-11-05T20:10:56.143Z,16.40
2022-11-05T20:13:27.333Z,16.30
2022-11-05T20:15:57.827Z,16.30
2022-11-05T20:18:28.162Z,16.30
2022-11-05T20:21:11.812Z,16.30
2022-11-05T20:23:42.560Z,16.30
2022-11-05T20:26:13.469Z,16.30
2022-11-05T20:28:45.833Z,16.30
2022-11-05T20:31:19.548Z,16.30
2022-11-05T20:33:50.236Z,16.30
2022-11-05T20:36:24.181Z,16.30
2022-11-05T20:39:00.227Z,16.30
2022-11-05T20:41:31.070Z,16.30
2022-11-05T20:44:01.735Z,16.20
2022-11-05T20:46:32.229Z,16.20
2022-11-05T20:49:02.169Z,16.20
2022-11-05T20:51:32.699Z,16.20
2022-11-05T20:54:03.179Z,16.20
2022-11-05T20:56:36.891Z,16.10
2022-11-05T20:59:07.844Z,16.10
2022-11-05T21:01:38.636Z,16.10
2022-11-05T21:04:09.306Z,16.00
2022-11-05T21:06:39.235Z,16.00
2022-11-05T21:09:09.894Z,16.00
2022-11-05T21:11:53.341Z,16.00
2022-11-05T21:14:24.127Z,16.00
2022-11-05T21:16:55.150Z,15.90
2022-11-05T21:19:26.148Z,15.90
2022-11-05T21:21:56.575Z,15.90
2022-11-05T21:24:27.273Z,15.80
2022-11-05T21:26:57.930Z,15.90
2022-11-05T21:29:28.732Z,15.90
2022-11-05T21:31:59.165Z,15.90
2022-11-05T21:34:30.038Z,15.90
2022-11-05T21:37:00.506Z,15.80
2022-11-05T21:39:31.189Z,15.80
2022-11-05T21:42:01.571Z,15.80
2022-11-05T21:44:32.239Z,15.80
2022-11-05T21:47:02.703Z,15.90
2022-11-05T21:49:33.353Z,15.90
2022-11-05T21:52:15.834Z,15.80
2022-11-05T21:54:56.014Z,15.80
2022-11-05T21:57:36.098Z,15.80
2022-11-05T22:00:10.534Z,15.80
2022-11-05T22:02:41.591Z,15.90
2022-11-05T22:05:12.366Z,15.90
2022-11-05T22:07:42.933Z,15.80
2022-11-05T22:10:16.352Z,15.80
2022-11-05T22:12:48.017Z,15.80
2022-11-05T22:15:18.616Z,15.80
2022-11-05T22:17:49.231Z,15.80
2022-11-05T22:20:20.609Z,15.80
2022-11-05T22:22:51.366Z,15.80
2022-11-05T22:25:22.149Z,15.80
2022-11-05T22:27:52.571Z,15.70
2022-11-05T22:30:23.255Z,15.70
2022-11-05T22:32:53.647Z,15.70
2022-11-05T22:35:24.106Z,15.60
2022-11-05T22:37:54.696Z,15.60
2022-11-05T22:40:25.172Z,15.60
2022-11-05T22:42:55.708Z,15.60
2022-11-05T22:45:25.467Z,15.50
2022-11-05T22:47:55.922Z,15.50
2022-11-05T22:50:26.559Z,15.50
2022-11-05T22:52:57.090Z,15.50
2022-11-05T22:55:26.948Z,15.50
2022-11-05T22:57:57.435Z,15.50
2022-11-05T23:00:36.607Z,15.60
2022-11-05T23:03:07.389Z,15.50
2022-11-05T23:05:37.939Z,15.50
2022-11-05T23:08:20.397Z,15.40
2022-11-05T23:11:00.571Z,15.40
2022-11-05T23:13:31.167Z,15.40
2022-11-05T23:16:10.905Z,15.30
2022-11-05T23:18:50.989Z,15.30
2022-11-05T23:21:31.194Z,15.40
2022-11-05T23:24:08.679Z,15.30
2022-11-05T23:26:51.686Z,15.40
2022-11-05T23:29:25.167Z,15.30
2022-11-05T23:32:11.792Z,15.30
2022-11-05T23:34:42.353Z,15.30
2022-11-05T23:37:21.948Z,15.30
2022-11-05T23:39:53.267Z,15.20
2022-11-05T23:42:42.197Z,15.20
2022-11-05T23:45:32.155Z,15.20
2022-11-05T23:48:19.271Z,15.10
2022-11-05T23:50:55.777Z,15.20
2022-11-05T23:53:26.835Z,15.20
2022-11-05T23:56:03.766Z,15.20
2022-11-05T23:58:34.386Z,15.20
